N2324K KEGE-KLXV
Flight info
| Callsign | N2324K |
|---|---|
| Flight time | 0h 21m |
| Altitude | 13000 |
| Route | GYPSM6 RLG |
| Aircraft | BE36/L-BDFGLORY/S |
Departure
| Time | 2026-04-22 01:45 |
|---|---|
| Airport | Eagle County Regional Airport (KEGE) |
Arrival
| Time | 2026-04-22 02:07 |
|---|---|
| Airport | Lake County Airport (KLXV) |
| Time | Latitude | Longitude | Altitude | Speed | Heading |
|---|---|---|---|---|---|
| 2026-04-22 01:41 | 39.64000 | -106.93051 | 6467 ft | 0 kts | 263° |
| 2026-04-22 01:43 | 39.63999 | -106.93056 | 6466 ft | 4 kts | 263° |
| 2026-04-22 01:44 | 39.63998 | -106.93076 | 6466 ft | 0 kts | 274° |
| 2026-04-22 01:44 | 39.63998 | -106.93078 | 6466 ft | 1 kts | 274° |
| 2026-04-22 01:44 | 39.63999 | -106.93099 | 6465 ft | 8 kts | 273° |
| 2026-04-22 01:44 | 39.64058 | -106.93162 | 6464 ft | 12 kts | 1° |
| 2026-04-22 01:45 | 39.64114 | -106.93082 | 6468 ft | 36 kts | 79° |
| 2026-04-22 01:45 | 39.64206 | -106.92374 | 6499 ft | 115 kts | 78° |
| 2026-04-22 01:45 | 39.64338 | -106.91201 | 6859 ft | 140 kts | 81° |
| 2026-04-22 01:45 | 39.64443 | -106.89914 | 7352 ft | 149 kts | 82° |
| 2026-04-22 01:46 | 39.64579 | -106.88552 | 7853 ft | 156 kts | 81° |
| 2026-04-22 01:46 | 39.64937 | -106.87296 | 8552 ft | 141 kts | 39° |
| 2026-04-22 01:46 | 39.65841 | -106.86842 | 9060 ft | 146 kts | 8° |
| 2026-04-22 01:46 | 39.66845 | -106.86546 | 9590 ft | 150 kts | 6° |
| 2026-04-22 01:47 | 39.67922 | -106.86326 | 9953 ft | 162 kts | 3° |
| 2026-04-22 01:47 | 39.69049 | -106.86245 | 10395 ft | 159 kts | 354° |
| 2026-04-22 01:47 | 39.70141 | -106.86398 | 10803 ft | 155 kts | 345° |
| 2026-04-22 01:47 | 39.71158 | -106.86688 | 11292 ft | 153 kts | 347° |
| 2026-04-22 01:48 | 39.72178 | -106.86820 | 11870 ft | 143 kts | 351° |
| 2026-04-22 01:48 | 39.73209 | -106.86910 | 12186 ft | 153 kts | 351° |
| 2026-04-22 01:48 | 39.74318 | -106.86994 | 12355 ft | 170 kts | 355° |
| 2026-04-22 01:48 | 39.75592 | -106.87053 | 12250 ft | 193 kts | 353° |
| 2026-04-22 01:49 | 39.76965 | -106.87218 | 12142 ft | 205 kts | 1° |
| 2026-04-22 01:49 | 39.78293 | -106.86439 | 12024 ft | 220 kts | 41° |
| 2026-04-22 01:49 | 39.79164 | -106.84779 | 11918 ft | 226 kts | 60° |
| 2026-04-22 01:49 | 39.79895 | -106.82988 | 11804 ft | 228 kts | 60° |
| 2026-04-22 01:50 | 39.80626 | -106.81158 | 11685 ft | 228 kts | 61° |
| 2026-04-22 01:50 | 39.81352 | -106.79325 | 11558 ft | 228 kts | 61° |
| 2026-04-22 01:50 | 39.82072 | -106.77490 | 11438 ft | 227 kts | 61° |
| 2026-04-22 01:50 | 39.82788 | -106.75654 | 11315 ft | 224 kts | 62° |
| 2026-04-22 01:51 | 39.83485 | -106.73861 | 11177 ft | 224 kts | 61° |
| 2026-04-22 01:51 | 39.84216 | -106.72023 | 11206 ft | 225 kts | 61° |
| 2026-04-22 01:51 | 39.84919 | -106.70250 | 11499 ft | 216 kts | 60° |
| 2026-04-22 01:51 | 39.85595 | -106.68530 | 11795 ft | 211 kts | 61° |
| 2026-04-22 01:52 | 39.86249 | -106.66855 | 12087 ft | 209 kts | 62° |
| 2026-04-22 01:52 | 39.86909 | -106.65175 | 12383 ft | 208 kts | 61° |
| 2026-04-22 01:52 | 39.87645 | -106.63578 | 12682 ft | 205 kts | 47° |
| 2026-04-22 01:52 | 39.88624 | -106.62236 | 12973 ft | 204 kts | 43° |
| 2026-04-22 01:53 | 39.89619 | -106.60908 | 13273 ft | 204 kts | 45° |
| 2026-04-22 01:53 | 39.90553 | -106.59498 | 13573 ft | 206 kts | 48° |
| 2026-04-22 01:53 | 39.91306 | -106.57917 | 13862 ft | 209 kts | 73° |
| 2026-04-22 01:53 | 39.91192 | -106.56066 | 14153 ft | 209 kts | 114° |
| 2026-04-22 01:54 | 39.90507 | -106.54399 | 14451 ft | 208 kts | 122° |
| 2026-04-22 01:54 | 39.89768 | -106.52741 | 14562 ft | 218 kts | 122° |
| 2026-04-22 01:54 | 39.88983 | -106.50995 | 14561 ft | 228 kts | 122° |
| 2026-04-22 01:54 | 39.88165 | -106.49200 | 14562 ft | 233 kts | 122° |
| 2026-04-22 01:55 | 39.87237 | -106.47472 | 14560 ft | 233 kts | 135° |
| 2026-04-22 01:55 | 39.86064 | -106.46005 | 14555 ft | 235 kts | 140° |
| 2026-04-22 01:55 | 39.84846 | -106.44563 | 14483 ft | 238 kts | 140° |
| 2026-04-22 01:55 | 39.83448 | -106.43456 | 14406 ft | 236 kts | 165° |
| 2026-04-22 01:56 | 39.81846 | -106.42985 | 14361 ft | 235 kts | 172° |
| 2026-04-22 01:56 | 39.80262 | -106.42615 | 14358 ft | 233 kts | 173° |
| 2026-04-22 01:56 | 39.78670 | -106.42254 | 14360 ft | 232 kts | 173° |
| 2026-04-22 01:56 | 39.77078 | -106.41891 | 14357 ft | 232 kts | 173° |
| 2026-04-22 01:57 | 39.75497 | -106.41541 | 14357 ft | 227 kts | 173° |
| 2026-04-22 01:57 | 39.73959 | -106.41202 | 14351 ft | 222 kts | 173° |
| 2026-04-22 01:57 | 39.72445 | -106.40862 | 14347 ft | 219 kts | 173° |
| 2026-04-22 01:57 | 39.70950 | -106.40526 | 14344 ft | 217 kts | 173° |
| 2026-04-22 01:58 | 39.69468 | -106.40191 | 14344 ft | 216 kts | 173° |
| 2026-04-22 01:58 | 39.67995 | -106.39855 | 14349 ft | 214 kts | 174° |
| 2026-04-22 01:58 | 39.66522 | -106.39522 | 14353 ft | 215 kts | 173° |
| 2026-04-22 01:58 | 39.65051 | -106.39182 | 14353 ft | 215 kts | 173° |
| 2026-04-22 01:59 | 39.63576 | -106.38844 | 14351 ft | 214 kts | 173° |
| 2026-04-22 01:59 | 39.62110 | -106.38502 | 14349 ft | 214 kts | 173° |
| 2026-04-22 01:59 | 39.60642 | -106.38155 | 14353 ft | 215 kts | 173° |
| 2026-04-22 01:59 | 39.59170 | -106.37805 | 14316 ft | 217 kts | 172° |
| 2026-04-22 02:00 | 39.57658 | -106.37447 | 14087 ft | 223 kts | 173° |
| 2026-04-22 02:00 | 39.56113 | -106.37081 | 13878 ft | 228 kts | 172° |
| 2026-04-22 02:00 | 39.54540 | -106.36693 | 13688 ft | 233 kts | 172° |
| 2026-04-22 02:00 | 39.52988 | -106.36292 | 13863 ft | 223 kts | 171° |
| 2026-04-22 02:01 | 39.51482 | -106.35886 | 14065 ft | 219 kts | 171° |
| 2026-04-22 02:01 | 39.50006 | -106.35478 | 14301 ft | 215 kts | 171° |
| 2026-04-22 02:01 | 39.48565 | -106.35073 | 14521 ft | 215 kts | 170° |
| 2026-04-22 02:01 | 39.47109 | -106.34655 | 14646 ft | 218 kts | 170° |
| 2026-04-22 02:02 | 39.45645 | -106.34234 | 14374 ft | 212 kts | 171° |
| 2026-04-22 02:02 | 39.44218 | -106.33786 | 14001 ft | 212 kts | 162° |
| 2026-04-22 02:02 | 39.42941 | -106.32841 | 13696 ft | 211 kts | 149° |
| 2026-04-22 02:02 | 39.41617 | -106.32228 | 13458 ft | 198 kts | 180° |
| 2026-04-22 02:03 | 39.40262 | -106.32255 | 13144 ft | 193 kts | 184° |
| 2026-04-22 02:03 | 39.38985 | -106.31710 | 12823 ft | 202 kts | 143° |
| 2026-04-22 02:03 | 39.38285 | -106.30170 | 12662 ft | 194 kts | 120° |
| 2026-04-22 02:03 | 39.37237 | -106.29946 | 12799 ft | 158 kts | 208° |
| 2026-04-22 02:04 | 39.35111 | -106.31725 | 11647 ft | 194 kts | 201° |
| 2026-04-22 02:04 | 39.33735 | -106.31725 | 11115 ft | 207 kts | 161° |
| 2026-04-22 02:04 | 39.32363 | -106.31549 | 11311 ft | 193 kts | 188° |
| 2026-04-22 02:05 | 39.31081 | -106.31863 | 11744 ft | 184 kts | 199° |
| 2026-04-22 02:05 | 39.29834 | -106.32173 | 12165 ft | 184 kts | 189° |
| 2026-04-22 02:05 | 39.28522 | -106.32302 | 12178 ft | 199 kts | 184° |
| 2026-04-22 02:05 | 39.27245 | -106.32343 | 11930 ft | 167 kts | 184° |
| 2026-04-22 02:06 | 39.26137 | -106.32352 | 11358 ft | 158 kts | 184° |
| 2026-04-22 02:06 | 39.25057 | -106.32342 | 10824 ft | 152 kts | 173° |
| 2026-04-22 02:06 | 39.24056 | -106.32085 | 10433 ft | 137 kts | 172° |
| 2026-04-22 02:06 | 39.23149 | -106.31902 | 10081 ft | 127 kts | 173° |
| 2026-04-22 02:07 | 39.22320 | -106.31715 | 9942 ft | 107 kts | 173° |
| 2026-04-22 02:07 | 39.21705 | -106.31589 | 9926 ft | 61 kts | 173° |
| 2026-04-22 02:07 | 39.21395 | -106.31525 | 9926 ft | 41 kts | 172° |
| 2026-04-22 02:07 | 39.21194 | -106.31475 | 9931 ft | 18 kts | 165° |
| 2026-04-22 02:08 | 39.21182 | -106.31372 | 9928 ft | 12 kts | 40° |
| 2026-04-22 02:08 | 39.21253 | -106.31387 | 9929 ft | 10 kts | 352° |
| 2026-04-22 02:08 | 39.21328 | -106.31396 | 9928 ft | 11 kts | 350° |
| 2026-04-22 02:08 | 39.21408 | -106.31416 | 9924 ft | 12 kts | 347° |
| 2026-04-22 02:09 | 39.21432 | -106.31423 | 9927 ft | 0 kts | 346° |
| 2026-04-22 02:09 | 39.21469 | -106.31431 | 9927 ft | 9 kts | 350° |
| 2026-04-22 02:09 | 39.21565 | -106.31455 | 9927 ft | 16 kts | 4° |
| 2026-04-22 02:09 | 39.21665 | -106.31476 | 9925 ft | 15 kts | 346° |
| 2026-04-22 02:10 | 39.21775 | -106.31504 | 9927 ft | 16 kts | 348° |
| 2026-04-22 02:10 | 39.21872 | -106.31516 | 9931 ft | 12 kts | 355° |
| 2026-04-22 02:10 | 39.21941 | -106.31557 | 9930 ft | 10 kts | 341° |
| 2026-04-22 02:10 | 39.21996 | -106.31576 | 9933 ft | 8 kts | 348° |
| 2026-04-22 02:11 | 39.22032 | -106.31585 | 9934 ft | 8 kts | 352° |
| 2026-04-22 02:11 | 39.22083 | -106.31578 | 9934 ft | 12 kts | 20° |
| 2026-04-22 02:11 | 39.22159 | -106.31566 | 9936 ft | 10 kts | 354° |
| 2026-04-22 02:11 | 39.22196 | -106.31586 | 9936 ft | 0 kts | 296° |
| 2026-04-22 02:12 | 39.22196 | -106.31610 | 9937 ft | 5 kts | 211° |
| 2026-04-22 02:12 | 39.22198 | -106.31592 | 9936 ft | 3 kts | 31° |
| 2026-04-22 02:12 | 39.22201 | -106.31586 | 9938 ft | 0 kts | 70° |